createdAt,value
2022-12-26T00:00:58.045Z,95.49
2022-12-26T00:01:57.942Z,95.28
2022-12-26T00:02:58.107Z,95.39
2022-12-26T00:03:58.077Z,95.39
2022-12-26T00:04:57.968Z,95.49
2022-12-26T00:05:57.909Z,95.59
2022-12-26T00:06:57.895Z,95.69
2022-12-26T00:07:57.881Z,95.49
2022-12-26T00:08:57.871Z,95.59
2022-12-26T00:09:57.859Z,95.59
2022-12-26T00:10:57.858Z,95.59
2022-12-26T00:11:57.845Z,95.59
2022-12-26T00:13:37.092Z,95.59
2022-12-26T00:13:57.824Z,95.59
2022-12-26T00:14:57.816Z,95.69
2022-12-26T00:15:57.852Z,95.59
2022-12-26T00:16:57.800Z,95.69
2022-12-26T00:17:57.778Z,95.90
2022-12-26T00:18:57.776Z,95.90
2022-12-26T00:19:57.757Z,95.69
2022-12-26T00:20:57.764Z,95.69
2022-12-26T00:21:57.745Z,95.69
2022-12-26T00:22:57.723Z,95.69
2022-12-26T00:23:57.715Z,95.69
2022-12-26T00:24:57.708Z,95.69
2022-12-26T00:25:57.690Z,95.69
2022-12-26T00:26:57.699Z,95.59
2022-12-26T00:27:57.671Z,95.49
2022-12-26T00:28:57.669Z,95.28
2022-12-26T00:29:57.658Z,95.39
2022-12-26T00:30:57.637Z,95.39
2022-12-26T00:31:57.673Z,95.59
2022-12-26T00:32:57.629Z,95.39
2022-12-26T00:33:57.639Z,95.28
2022-12-26T00:34:57.609Z,95.18
2022-12-26T00:35:57.584Z,95.28
2022-12-26T00:36:57.592Z,95.18
2022-12-26T00:37:57.578Z,95.39
2022-12-26T00:38:57.562Z,95.18
2022-12-26T00:39:57.559Z,95.18
2022-12-26T00:40:57.543Z,95.07
2022-12-26T00:41:57.520Z,94.98
2022-12-26T00:42:57.522Z,95.07
2022-12-26T00:43:57.513Z,94.87
2022-12-26T00:44:57.505Z,94.98
2022-12-26T00:45:57.486Z,95.07
2022-12-26T00:46:57.544Z,94.98
2022-12-26T00:47:57.469Z,94.87
2022-12-26T00:48:57.453Z,94.77
2022-12-26T00:50:12.578Z,94.87
2022-12-26T00:50:57.452Z,95.07
2022-12-26T00:51:57.436Z,94.98
2022-12-26T00:52:57.420Z,95.07
2022-12-26T00:53:57.403Z,94.98
2022-12-26T00:54:57.385Z,94.98
2022-12-26T00:55:57.389Z,94.87
2022-12-26T00:56:57.389Z,94.77
2022-12-26T00:57:57.373Z,94.87
2022-12-26T00:58:57.359Z,94.87
2022-12-26T00:59:57.323Z,94.77
2022-12-26T01:00:57.379Z,94.87
2022-12-26T01:01:57.502Z,94.87
2022-12-26T01:02:57.475Z,94.77
2022-12-26T01:03:57.290Z,94.77
2022-12-26T01:04:57.296Z,94.77
2022-12-26T01:05:57.268Z,94.67
2022-12-26T01:06:58.219Z,94.67
2022-12-26T01:08:21.526Z,94.67
2022-12-26T01:08:57.252Z,94.56
2022-12-26T01:09:57.222Z,94.77
2022-12-26T01:10:57.242Z,94.67
2022-12-26T01:11:57.206Z,94.67
2022-12-26T01:12:57.219Z,94.56
2022-12-26T01:13:57.183Z,94.56
2022-12-26T01:14:57.196Z,94.56
2022-12-26T01:15:57.227Z,94.56
2022-12-26T01:16:57.204Z,94.56
2022-12-26T01:17:57.141Z,94.87
2022-12-26T01:18:57.140Z,94.77
2022-12-26T01:19:57.131Z,94.77
2022-12-26T01:20:57.115Z,94.87
2022-12-26T01:21:57.099Z,94.77
2022-12-26T01:22:57.095Z,94.67
2022-12-26T01:23:57.097Z,94.67
2022-12-26T01:24:57.074Z,94.56
2022-12-26T01:26:15.806Z,94.56
2022-12-26T01:26:57.059Z,94.46
2022-12-26T01:27:57.028Z,94.46
2022-12-26T01:28:57.038Z,94.15
2022-12-26T01:29:57.017Z,93.95
2022-12-26T01:30:57.051Z,93.95
2022-12-26T01:31:57.035Z,93.70
2022-12-26T01:32:56.991Z,93.70
2022-12-26T01:33:56.984Z,93.60
2022-12-26T01:34:56.981Z,93.90
2022-12-26T01:35:56.997Z,93.80
2022-12-26T01:36:56.948Z,93.80
2022-12-26T01:37:56.957Z,94.05
2022-12-26T01:38:57.329Z,94.05
2022-12-26T01:39:56.908Z,93.95
2022-12-26T01:40:56.913Z,94.01
2022-12-26T01:41:56.897Z,94.26
2022-12-26T01:42:56.889Z,94.05
2022-12-26T01:43:56.896Z,94.15
2022-12-26T01:44:56.865Z,94.15
2022-12-26T01:45:56.902Z,94.26
2022-12-26T01:46:56.846Z,94.46
2022-12-26T01:47:56.830Z,94.46
2022-12-26T01:48:56.835Z,94.67
2022-12-26T01:49:56.815Z,94.46
2022-12-26T01:50:56.815Z,94.77
2022-12-26T01:51:56.812Z,94.77
2022-12-26T01:52:56.799Z,94.87
2022-12-26T01:54:39.735Z,94.87
2022-12-26T01:54:56.780Z,94.87
2022-12-26T01:55:56.760Z,94.87
2022-12-26T01:56:56.751Z,94.56
2022-12-26T01:57:56.746Z,94.56
2022-12-26T01:58:56.733Z,94.46
2022-12-26T01:59:56.702Z,94.67
2022-12-26T02:00:56.746Z,94.67
2022-12-26T02:01:56.885Z,94.56
2022-12-26T02:02:56.714Z,94.67
2022-12-26T02:03:56.663Z,94.67
2022-12-26T02:04:56.678Z,94.67
2022-12-26T02:05:56.643Z,94.67
2022-12-26T02:06:56.653Z,94.67
2022-12-26T02:07:56.622Z,94.67
2022-12-26T02:08:56.616Z,94.77
2022-12-26T02:09:56.601Z,94.77
2022-12-26T02:10:56.605Z,94.77
2022-12-26T02:12:35.368Z,94.87
2022-12-26T02:12:56.601Z,94.81
2022-12-26T02:13:56.564Z,95.02
2022-12-26T02:14:56.553Z,94.92
2022-12-26T02:15:56.565Z,94.98
2022-12-26T02:16:56.604Z,94.77
2022-12-26T02:17:56.527Z,94.87
2022-12-26T02:18:56.535Z,94.67
2022-12-26T02:19:56.503Z,94.56
2022-12-26T02:20:56.507Z,94.36
2022-12-26T02:21:56.474Z,94.26
2022-12-26T02:22:56.481Z,94.05
2022-12-26T02:23:56.453Z,93.95
2022-12-26T02:24:56.452Z,93.95
2022-12-26T02:25:56.435Z,93.95
2022-12-26T02:26:56.424Z,93.95
2022-12-26T02:27:56.421Z,94.05
2022-12-26T02:28:56.420Z,94.05
2022-12-26T02:29:56.395Z,94.15
2022-12-26T02:30:56.400Z,94.26
2022-12-26T02:31:56.438Z,94.46
2022-12-26T02:32:56.379Z,94.46
2022-12-26T02:33:56.358Z,94.61
2022-12-26T02:34:56.355Z,94.61
2022-12-26T02:35:56.334Z,94.56
2022-12-26T02:36:56.323Z,94.56
2022-12-26T02:37:56.340Z,94.46
2022-12-26T02:38:56.318Z,94.46
2022-12-26T02:39:56.305Z,94.36
2022-12-26T02:40:56.288Z,94.56
2022-12-26T02:41:56.265Z,94.46
2022-12-26T02:42:56.279Z,94.46
2022-12-26T02:43:56.242Z,94.36
2022-12-26T02:44:56.245Z,94.46
2022-12-26T02:45:56.296Z,94.77
2022-12-26T02:46:56.232Z,94.67
2022-12-26T02:47:56.208Z,94.67
2022-12-26T02:48:56.231Z,94.77
2022-12-26T02:49:56.193Z,94.98
2022-12-26T02:50:56.184Z,95.07
2022-12-26T02:51:56.171Z,95.39
2022-12-26T02:52:56.158Z,95.59
2022-12-26T02:53:56.153Z,95.69
2022-12-26T02:54:56.137Z,95.79
2022-12-26T02:55:56.122Z,96.00
2022-12-26T02:56:56.144Z,96.31
2022-12-26T02:57:56.107Z,96.62
2022-12-26T02:58:56.101Z,96.72
2022-12-26T02:59:57.361Z,96.92
2022-12-26T03:00:56.115Z,97.03
2022-12-26T03:01:56.300Z,97.23
2022-12-26T03:02:56.129Z,97.44
2022-12-26T03:03:56.042Z,97.64
2022-12-26T03:04:56.036Z,97.95
2022-12-26T03:05:56.020Z,98.05
2022-12-26T03:06:56.077Z,98.16
2022-12-26T03:07:55.999Z,97.99
2022-12-26T03:08:56.002Z,98.05
2022-12-26T03:09:56.011Z,97.95
2022-12-26T03:10:55.978Z,97.85
2022-12-26T03:11:56.000Z,98.05
2022-12-26T03:12:55.952Z,97.74
2022-12-26T03:13:55.946Z,97.74
2022-12-26T03:14:55.947Z,98.05
2022-12-26T03:15:55.925Z,97.85
2022-12-26T03:16:55.957Z,98.05
2022-12-26T03:17:55.920Z,97.85
2022-12-26T03:18:58.941Z,97.33
2022-12-26T03:19:55.894Z,97.44
2022-12-26T03:20:55.864Z,97.44
2022-12-26T03:21:55.863Z,97.54
2022-12-26T03:22:55.851Z,97.03
2022-12-26T03:23:55.838Z,97.23
2022-12-26T03:24:55.823Z,97.33
2022-12-26T03:25:55.827Z,97.03
2022-12-26T03:26:55.822Z,97.13
2022-12-26T03:27:55.819Z,96.92
2022-12-26T03:28:55.784Z,96.92
2022-12-26T03:29:55.777Z,96.82
2022-12-26T03:30:55.874Z,96.31
2022-12-26T03:31:55.758Z,96.20
2022-12-26T03:32:55.747Z,96.20
2022-12-26T03:33:55.755Z,96.31
2022-12-26T03:34:55.721Z,96.10
2022-12-26T03:35:55.733Z,96.00
2022-12-26T03:36:56.124Z,95.59
2022-12-26T03:37:55.696Z,95.49
2022-12-26T03:38:56.171Z,95.28
2022-12-26T03:39:55.673Z,95.28
2022-12-26T03:40:55.655Z,95.49
2022-12-26T03:41:55.654Z,95.39
2022-12-26T03:42:55.636Z,95.39
2022-12-26T03:43:55.633Z,95.39
2022-12-26T03:44:55.625Z,95.49
2022-12-26T03:45:55.649Z,95.49
2022-12-26T03:46:55.635Z,95.69
2022-12-26T03:47:56.544Z,95.84
2022-12-26T03:48:55.567Z,95.64
2022-12-26T03:49:55.580Z,95.69
2022-12-26T03:50:55.548Z,95.74
2022-12-26T03:51:55.544Z,95.64
2022-12-26T03:52:55.541Z,95.74
2022-12-26T03:53:55.527Z,95.74
2022-12-26T03:54:55.508Z,95.53
2022-12-26T03:55:55.512Z,95.64
2022-12-26T03:56:55.494Z,95.53
2022-12-26T03:57:56.327Z,95.64
2022-12-26T03:58:55.479Z,95.53
2022-12-26T03:59:55.511Z,95.64
2022-12-26T04:00:55.514Z,95.53
2022-12-26T04:01:55.576Z,95.43
2022-12-26T04:02:55.418Z,95.32
2022-12-26T04:03:55.471Z,95.07
2022-12-26T04:04:55.407Z,94.87
2022-12-26T04:05:55.397Z,94.67
2022-12-26T04:06:55.387Z,94.56
2022-12-26T04:07:56.185Z,94.56
2022-12-26T04:08:55.364Z,94.56
2022-12-26T04:09:55.370Z,94.46
2022-12-26T04:10:55.338Z,94.26
2022-12-26T04:11:55.819Z,94.15
2022-12-26T04:12:55.323Z,94.05
2022-12-26T04:13:55.328Z,94.15
2022-12-26T04:14:55.292Z,94.05
2022-12-26T04:15:55.329Z,94.26
2022-12-26T04:16:55.286Z,94.36
2022-12-26T04:17:55.289Z,94.36
2022-12-26T04:18:55.269Z,94.46
2022-12-26T04:19:55.258Z,94.46
2022-12-26T04:20:55.248Z,94.46
2022-12-26T04:21:55.249Z,94.56
2022-12-26T04:22:55.237Z,94.67
2022-12-26T04:23:55.222Z,94.81
2022-12-26T04:24:55.206Z,94.81
2022-12-26T04:25:55.189Z,94.81
2022-12-26T04:26:55.202Z,94.92
2022-12-26T04:27:55.172Z,94.92
2022-12-26T04:28:55.171Z,94.81
2022-12-26T04:29:55.148Z,94.81
2022-12-26T04:30:55.583Z,94.81
2022-12-26T04:31:55.135Z,94.81
2022-12-26T04:32:55.130Z,94.67
2022-12-26T04:33:55.102Z,94.46
2022-12-26T04:34:55.094Z,94.46
2022-12-26T04:35:55.081Z,94.36
2022-12-26T04:36:55.075Z,94.26
2022-12-26T04:37:55.068Z,94.26
2022-12-26T04:38:55.059Z,94.36
2022-12-26T04:39:55.034Z,94.05
2022-12-26T04:40:55.041Z,94.05
2022-12-26T04:41:55.055Z,94.05
2022-12-26T04:42:55.014Z,94.15
2022-12-26T04:43:55.004Z,93.95
2022-12-26T04:44:54.985Z,93.95
2022-12-26T04:45:55.012Z,93.85
2022-12-26T04:46:55.037Z,93.85
2022-12-26T04:47:54.960Z,93.95
2022-12-26T04:48:54.937Z,94.15
2022-12-26T04:49:54.932Z,93.85
2022-12-26T04:50:54.926Z,93.80
2022-12-26T04:51:54.918Z,93.80
2022-12-26T04:52:55.245Z,93.80
2022-12-26T04:53:54.903Z,93.80
2022-12-26T04:54:54.877Z,94.11
2022-12-26T04:55:54.862Z,94.15
2022-12-26T04:56:54.860Z,94.36
2022-12-26T04:57:54.860Z,94.36
2022-12-26T04:58:54.852Z,94.32
2022-12-26T04:59:54.829Z,94.42
2022-12-26T05:00:54.829Z,94.52
2022-12-26T05:01:54.935Z,94.67
2022-12-26T05:02:54.897Z,94.77
2022-12-26T05:03:54.896Z,94.83
2022-12-26T05:04:54.787Z,94.73
2022-12-26T05:05:54.766Z,94.98
2022-12-26T05:06:54.763Z,95.18
2022-12-26T05:07:54.797Z,95.39
2022-12-26T05:08:54.735Z,95.69
2022-12-26T05:09:54.724Z,96.20
2022-12-26T05:10:54.717Z,96.51
2022-12-26T05:11:54.720Z,96.82
2022-12-26T05:12:54.773Z,97.13
2022-12-26T05:13:54.718Z,97.33
2022-12-26T05:14:54.677Z,97.54
2022-12-26T05:15:54.758Z,97.54
2022-12-26T05:16:54.653Z,97.54
2022-12-26T05:17:54.642Z,97.54
2022-12-26T05:18:54.642Z,97.64
2022-12-26T05:19:54.627Z,97.64
2022-12-26T05:20:54.610Z,97.54
2022-12-26T05:21:54.613Z,97.74
2022-12-26T05:22:54.584Z,97.74
2022-12-26T05:23:54.577Z,97.74
2022-12-26T05:24:54.570Z,97.54
2022-12-26T05:25:54.565Z,97.54
2022-12-26T05:26:54.550Z,97.44
2022-12-26T05:27:54.535Z,97.23
2022-12-26T05:28:54.544Z,97.23
2022-12-26T05:29:54.525Z,97.13
2022-12-26T05:30:54.531Z,97.23
2022-12-26T05:31:54.523Z,97.23
2022-12-26T05:32:54.490Z,97.44
2022-12-26T05:33:54.479Z,97.54
2022-12-26T05:34:54.478Z,97.54
2022-12-26T05:35:54.873Z,97.64
2022-12-26T05:36:54.459Z,97.95
2022-12-26T05:37:54.440Z,98.25
2022-12-26T05:38:54.412Z,98.16
2022-12-26T05:39:54.436Z,98.36
2022-12-26T05:40:54.407Z,98.46
2022-12-26T05:41:54.403Z,98.71
2022-12-26T05:42:54.373Z,99.02
2022-12-26T05:43:54.372Z,98.61
2022-12-26T05:44:54.361Z,98.71
2022-12-26T05:45:54.356Z,98.92
2022-12-26T05:46:54.389Z,99.02
2022-12-26T05:47:54.345Z,98.92
2022-12-26T05:48:54.347Z,99.12
2022-12-26T05:49:54.314Z,99.12
2022-12-26T05:50:54.297Z,98.71
2022-12-26T05:51:54.308Z,99.12
2022-12-26T05:52:54.274Z,98.82
2022-12-26T05:53:54.284Z,99.02
2022-12-26T05:54:54.438Z,99.12
2022-12-26T05:55:54.240Z,98.82
2022-12-26T05:56:54.247Z,98.71
2022-12-26T05:57:54.259Z,98.71
2022-12-26T05:58:54.204Z,99.02
2022-12-26T05:59:54.205Z,98.71
2022-12-26T06:00:54.191Z,98.71
2022-12-26T06:01:54.337Z,98.92
2022-12-26T06:02:54.321Z,99.12
2022-12-26T06:03:54.200Z,99.12
2022-12-26T06:04:54.147Z,99.12
2022-12-26T06:05:54.141Z,99.02
2022-12-26T06:06:54.137Z,98.82
2022-12-26T06:07:54.121Z,98.82
2022-12-26T06:08:54.122Z,99.02
2022-12-26T06:09:54.090Z,98.61
2022-12-26T06:10:54.079Z,98.82
2022-12-26T06:11:54.082Z,98.92
2022-12-26T06:12:54.065Z,98.92
2022-12-26T06:13:54.082Z,98.82
2022-12-26T06:14:54.039Z,98.92
2022-12-26T06:15:54.126Z,98.92
2022-12-26T06:16:54.119Z,98.82
2022-12-26T06:17:54.018Z,98.61
2022-12-26T06:18:54.014Z,98.30
2022-12-26T06:19:54.001Z,98.41
2022-12-26T06:20:53.979Z,98.41
2022-12-26T06:21:53.980Z,98.30
2022-12-26T06:22:53.968Z,98.30
2022-12-26T06:23:53.954Z,98.10
2022-12-26T06:24:53.946Z,98.71
2022-12-26T06:25:53.936Z,98.61
2022-12-26T06:26:53.918Z,98.82
2022-12-26T06:27:53.912Z,99.02
2022-12-26T06:28:53.907Z,98.82
2022-12-26T06:29:53.887Z,98.92
2022-12-26T06:30:53.870Z,99.33
2022-12-26T06:31:53.916Z,99.38
2022-12-26T06:32:53.852Z,99.02
2022-12-26T06:33:54.000Z,98.82
2022-12-26T06:34:53.827Z,99.48
2022-12-26T06:35:53.821Z,98.92
2022-12-26T06:36:53.810Z,99.27
2022-12-26T06:37:53.805Z,99.17
2022-12-26T06:38:53.813Z,98.96
2022-12-26T06:39:53.794Z,98.55
2022-12-26T06:40:53.777Z,98.71
2022-12-26T06:41:53.772Z,98.61
2022-12-26T06:42:53.744Z,98.92
2022-12-26T06:43:53.744Z,98.71
2022-12-26T06:44:53.745Z,98.82
2022-12-26T06:45:53.719Z,98.92
2022-12-26T06:46:53.725Z,98.71
2022-12-26T06:47:53.701Z,98.92
2022-12-26T06:48:53.681Z,98.66
2022-12-26T06:49:53.677Z,98.71
2022-12-26T06:50:53.671Z,98.41
2022-12-26T06:51:53.674Z,98.41
2022-12-26T06:52:53.634Z,98.41
2022-12-26T06:53:53.639Z,98.10
2022-12-26T06:54:53.617Z,97.69
2022-12-26T06:55:53.620Z,97.89
2022-12-26T06:56:53.591Z,97.69
2022-12-26T06:57:53.602Z,98.20
2022-12-26T06:58:53.621Z,97.99
2022-12-26T06:59:54.434Z,97.99
2022-12-26T07:00:53.591Z,98.20
2022-12-26T07:01:53.691Z,98.20
2022-12-26T07:02:53.592Z,98.30
2022-12-26T07:03:53.478Z,98.20
2022-12-26T07:04:53.519Z,98.20
2022-12-26T07:05:53.518Z,98.10
2022-12-26T07:06:53.505Z,97.48
2022-12-26T07:07:53.499Z,97.17
2022-12-26T07:08:53.488Z,97.69
2022-12-26T07:09:53.486Z,97.79
2022-12-26T07:10:53.463Z,97.99
2022-12-26T07:11:53.455Z,97.48
2022-12-26T07:12:53.381Z,97.99
2022-12-26T07:13:53.390Z,97.99
2022-12-26T07:14:56.669Z,98.41
2022-12-26T07:15:53.392Z,98.61
2022-12-26T07:16:53.431Z,99.12
2022-12-26T07:17:53.339Z,99.43
2022-12-26T07:18:53.328Z,99.68
2022-12-26T07:19:53.311Z,99.99
2022-12-26T07:20:53.343Z,99.99
2022-12-26T07:21:53.306Z,99.99
2022-12-26T07:22:53.272Z,99.99
2022-12-26T07:23:53.287Z,99.99
2022-12-26T07:24:53.269Z,99.99
2022-12-26T07:25:53.249Z,99.99
2022-12-26T07:26:53.272Z,99.99
2022-12-26T07:27:53.237Z,99.99
2022-12-26T07:28:53.216Z,99.99
2022-12-26T07:29:53.218Z,99.99
2022-12-26T07:30:53.215Z,99.99
2022-12-26T07:31:53.229Z,99.99
2022-12-26T07:32:53.178Z,99.99
2022-12-26T07:33:53.171Z,99.99
2022-12-26T07:34:53.156Z,99.99
2022-12-26T07:35:53.139Z,99.99
2022-12-26T07:36:53.142Z,99.99
2022-12-26T07:37:53.139Z,99.99
2022-12-26T07:38:53.152Z,99.99
2022-12-26T07:39:58.700Z,99.99
2022-12-26T07:40:53.101Z,99.99
2022-12-26T07:41:53.078Z,99.99
2022-12-26T07:42:53.084Z,99.99
2022-12-26T07:43:53.062Z,99.99
2022-12-26T07:44:53.050Z,99.99
2022-12-26T07:45:53.125Z,99.99
2022-12-26T07:46:53.546Z,99.99
2022-12-26T07:47:53.012Z,99.99
2022-12-26T07:48:53.003Z,99.99
2022-12-26T07:49:53.005Z,99.99
2022-12-26T07:50:52.990Z,99.99
2022-12-26T07:51:52.989Z,99.99
2022-12-26T07:52:52.973Z,99.99
2022-12-26T07:53:52.976Z,99.99
2022-12-26T07:54:52.956Z,99.99
2022-12-26T07:55:52.926Z,99.99
2022-12-26T07:56:52.927Z,99.99
2022-12-26T07:57:52.903Z,99.99
2022-12-26T07:58:52.916Z,99.99
2022-12-26T07:59:53.747Z,99.99
2022-12-26T08:00:52.934Z,99.99
2022-12-26T08:01:53.059Z,99.99
2022-12-26T08:02:52.980Z,99.99
2022-12-26T08:03:52.973Z,99.99
2022-12-26T08:04:52.851Z,99.99
2022-12-26T08:05:52.824Z,99.99
2022-12-26T08:06:52.827Z,99.99
2022-12-26T08:07:52.807Z,99.99
2022-12-26T08:08:52.800Z,99.99
2022-12-26T08:09:52.792Z,99.99
2022-12-26T08:10:52.784Z,99.99
2022-12-26T08:11:52.772Z,99.99
2022-12-26T08:12:52.769Z,99.99
2022-12-26T08:13:52.764Z,99.99
2022-12-26T08:14:52.740Z,99.99
2022-12-26T08:15:52.727Z,99.99
2022-12-26T08:16:53.791Z,99.99
2022-12-26T08:17:52.706Z,99.99
2022-12-26T08:18:52.695Z,99.99
2022-12-26T08:19:52.688Z,99.99
2022-12-26T08:20:52.692Z,99.99
2022-12-26T08:21:52.666Z,99.99
2022-12-26T08:22:52.662Z,99.99
2022-12-26T08:23:52.654Z,99.99
2022-12-26T08:24:52.651Z,99.99
2022-12-26T08:25:52.624Z,99.99
2022-12-26T08:26:52.619Z,99.99
2022-12-26T08:27:52.597Z,99.99
2022-12-26T08:28:52.590Z,99.99
2022-12-26T08:29:52.583Z,99.99
2022-12-26T08:30:52.580Z,99.99
2022-12-26T08:31:52.575Z,99.99
2022-12-26T08:32:52.562Z,99.99
2022-12-26T08:33:52.534Z,99.99
2022-12-26T08:34:52.544Z,99.99
2022-12-26T08:35:52.512Z,99.99
2022-12-26T08:36:52.517Z,99.99
2022-12-26T08:37:52.489Z,99.99
2022-12-26T08:38:52.498Z,99.99
2022-12-26T08:39:52.492Z,99.99
2022-12-26T08:40:52.474Z,99.99
2022-12-26T08:41:52.462Z,99.99
2022-12-26T08:43:12.048Z,99.99
2022-12-26T08:44:25.743Z,99.99
2022-12-26T08:44:52.423Z,99.99
2022-12-26T08:45:52.423Z,99.99
2022-12-26T08:46:52.431Z,99.99
2022-12-26T08:47:52.385Z,99.99
2022-12-26T08:48:52.393Z,99.99
2022-12-26T08:49:52.369Z,99.99
2022-12-26T08:50:52.369Z,99.99
2022-12-26T08:51:52.354Z,99.99
2022-12-26T08:52:52.351Z,99.99
2022-12-26T08:53:52.335Z,99.99
2022-12-26T08:54:52.345Z,99.99
2022-12-26T08:55:52.311Z,99.99
2022-12-26T08:56:52.715Z,99.99
2022-12-26T08:57:52.291Z,99.99
2022-12-26T08:58:52.278Z,99.99
2022-12-26T08:59:52.262Z,99.99
2022-12-26T09:00:55.425Z,99.99
2022-12-26T09:01:52.343Z,99.99
2022-12-26T09:02:52.881Z,99.99
2022-12-26T09:03:52.223Z,99.99
2022-12-26T09:04:52.226Z,99.99
2022-12-26T09:05:52.194Z,99.99
2022-12-26T09:06:52.211Z,99.99
2022-12-26T09:07:52.190Z,99.99
2022-12-26T09:08:52.181Z,99.99
2022-12-26T09:09:52.166Z,99.99
2022-12-26T09:10:52.170Z,99.99
2022-12-26T09:11:52.132Z,99.99
2022-12-26T09:12:52.182Z,99.99
2022-12-26T09:13:52.136Z,99.99
2022-12-26T09:14:52.127Z,99.99
2022-12-26T09:15:52.108Z,99.99
2022-12-26T09:16:52.588Z,99.99
2022-12-26T09:17:52.089Z,99.99
2022-12-26T09:18:52.080Z,99.99
2022-12-26T09:19:52.072Z,99.99
2022-12-26T09:20:52.056Z,99.99
2022-12-26T09:21:52.047Z,99.99
2022-12-26T09:22:52.044Z,99.99
2022-12-26T09:23:52.012Z,99.99
2022-12-26T09:24:52.021Z,99.99
2022-12-26T09:25:51.994Z,99.99
2022-12-26T09:26:52.007Z,99.99
2022-12-26T09:27:58.566Z,99.99
2022-12-26T09:28:51.973Z,99.99
2022-12-26T09:29:51.963Z,99.99
2022-12-26T09:30:51.982Z,99.99
2022-12-26T09:31:51.935Z,99.99
2022-12-26T09:32:51.920Z,99.99
2022-12-26T09:33:51.916Z,99.99
2022-12-26T09:34:52.672Z,99.99
2022-12-26T09:35:51.893Z,99.99
2022-12-26T09:36:52.301Z,99.99
2022-12-26T09:37:51.881Z,99.99
2022-12-26T09:38:51.863Z,99.99
2022-12-26T09:39:51.851Z,99.99
2022-12-26T09:40:51.847Z,99.99
2022-12-26T09:41:51.838Z,99.99
2022-12-26T09:42:51.833Z,99.99
2022-12-26T09:43:51.807Z,99.99
2022-12-26T09:44:51.816Z,99.99
2022-12-26T09:45:51.819Z,99.99
2022-12-26T09:46:51.786Z,99.99
2022-12-26T09:47:51.766Z,99.99
2022-12-26T09:48:51.756Z,99.99
2022-12-26T09:49:51.759Z,99.99
2022-12-26T09:50:51.733Z,99.99
2022-12-26T09:51:51.735Z,99.99
2022-12-26T09:52:51.714Z,99.99
2022-12-26T09:53:51.709Z,99.99
2022-12-26T09:54:51.721Z,99.99
2022-12-26T09:55:51.697Z,99.99
2022-12-26T09:57:12.927Z,99.99
2022-12-26T09:57:51.668Z,99.99
2022-12-26T09:58:51.657Z,99.99
2022-12-26T09:59:51.643Z,99.99
2022-12-26T10:00:51.976Z,99.99
2022-12-26T10:01:51.688Z,99.99
2022-12-26T10:02:51.612Z,99.99
2022-12-26T10:03:51.607Z,99.99
2022-12-26T10:04:51.636Z,99.99
2022-12-26T10:05:51.589Z,99.99
2022-12-26T10:06:51.582Z,99.99
2022-12-26T10:07:51.555Z,99.99
2022-12-26T10:08:51.566Z,99.99
2022-12-26T10:09:51.564Z,99.99
2022-12-26T10:10:51.558Z,99.99
2022-12-26T10:11:51.525Z,99.99
2022-12-26T10:12:51.521Z,99.99
2022-12-26T10:13:51.493Z,99.99
2022-12-26T10:14:51.494Z,99.99
2022-12-26T10:15:51.539Z,99.99
2022-12-26T10:16:51.888Z,99.99
2022-12-26T10:17:51.466Z,99.47
2022-12-26T10:18:51.451Z,99.99
2022-12-26T10:19:51.443Z,99.99
2022-12-26T10:20:51.444Z,99.99
2022-12-26T10:21:51.415Z,99.77
2022-12-26T10:22:51.415Z,99.99
2022-12-26T10:23:51.398Z,99.47
2022-12-26T10:24:52.011Z,99.47
2022-12-26T10:25:51.373Z,99.67
2022-12-26T10:26:51.379Z,99.26
2022-12-26T10:27:51.351Z,99.16
2022-12-26T10:28:51.345Z,99.16
2022-12-26T10:29:51.327Z,98.75
2022-12-26T10:30:51.376Z,98.75
2022-12-26T10:31:51.310Z,99.05
2022-12-26T10:32:51.306Z,99.21
2022-12-26T10:33:51.288Z,99.11
2022-12-26T10:34:51.278Z,98.70
2022-12-26T10:35:51.285Z,98.39
2022-12-26T10:36:51.256Z,98.39
2022-12-26T10:37:51.270Z,98.39
2022-12-26T10:38:51.237Z,98.39
2022-12-26T10:39:51.232Z,97.99
2022-12-26T10:40:51.225Z,98.39
2022-12-26T10:41:51.200Z,98.50
2022-12-26T10:42:51.196Z,98.19
2022-12-26T10:43:51.184Z,98.65
2022-12-26T10:44:51.470Z,98.39
2022-12-26T10:45:51.193Z,98.44
2022-12-26T10:46:51.242Z,98.75
2022-12-26T10:47:51.136Z,98.75
2022-12-26T10:48:51.129Z,98.54
2022-12-26T10:49:51.122Z,98.33
2022-12-26T10:50:51.104Z,98.24
2022-12-26T10:51:51.437Z,98.85
2022-12-26T10:52:51.093Z,99.05
2022-12-26T10:53:51.088Z,98.85
2022-12-26T10:54:51.067Z,98.85
2022-12-26T10:55:51.076Z,99.11
2022-12-26T10:56:51.470Z,99.01
2022-12-26T10:57:51.036Z,98.85
2022-12-26T10:58:51.023Z,98.33
2022-12-26T10:59:51.067Z,97.41
2022-12-26T11:00:51.016Z,97.52
2022-12-26T11:01:51.139Z,97.82
2022-12-26T11:02:51.151Z,98.33
2022-12-26T11:03:51.105Z,98.65
2022-12-26T11:05:13.517Z,98.24
2022-12-26T11:06:08.112Z,98.96
2022-12-26T11:06:50.956Z,99.05
2022-12-26T11:07:51.409Z,98.13
2022-12-26T11:08:50.934Z,97.92
2022-12-26T11:09:50.915Z,98.33
2022-12-26T11:10:50.898Z,98.08
2022-12-26T11:11:50.894Z,97.99
2022-12-26T11:12:50.892Z,97.37
2022-12-26T11:13:50.876Z,97.16
2022-12-26T11:14:50.872Z,98.29
2022-12-26T11:15:50.871Z,97.47
2022-12-26T11:16:50.842Z,97.37
2022-12-26T11:17:50.833Z,97.27
2022-12-26T11:18:50.861Z,97.32
2022-12-26T11:19:50.804Z,98.04
2022-12-26T11:20:50.804Z,96.70
2022-12-26T11:21:50.786Z,96.66
2022-12-26T11:22:50.770Z,96.62
2022-12-26T11:23:50.774Z,95.39
2022-12-26T11:24:50.767Z,95.75
2022-12-26T11:25:50.739Z,94.27
2022-12-26T11:26:50.753Z,91.71
2022-12-26T11:27:50.718Z,91.91
2022-12-26T11:28:50.716Z,92.63
2022-12-26T11:29:50.720Z,91.61
2022-12-26T11:30:50.696Z,92.94
2022-12-26T11:31:50.701Z,91.97
2022-12-26T11:32:50.676Z,92.59
2022-12-26T11:33:50.666Z,92.14
2022-12-26T11:34:50.666Z,91.63
2022-12-26T11:35:50.643Z,91.93
2022-12-26T11:36:50.641Z,92.34
2022-12-26T11:37:50.617Z,92.34
2022-12-26T11:38:50.618Z,91.58
2022-12-26T11:39:50.603Z,91.07
2022-12-26T11:40:50.586Z,91.58
2022-12-26T11:41:50.581Z,91.38
2022-12-26T11:42:50.559Z,91.27
2022-12-26T11:43:50.572Z,90.50
2022-12-26T11:44:50.547Z,90.09
2022-12-26T11:45:50.540Z,90.60
2022-12-26T11:46:50.572Z,91.31
2022-12-26T11:47:50.512Z,89.58
2022-12-26T11:48:50.506Z,89.89
2022-12-26T11:49:50.525Z,90.77
2022-12-26T11:50:50.500Z,89.84
2022-12-26T11:51:55.485Z,89.74
2022-12-26T11:52:50.474Z,90.36
2022-12-26T11:53:50.457Z,89.94
2022-12-26T11:54:50.445Z,90.05
2022-12-26T11:55:50.441Z,88.76
2022-12-26T11:56:50.421Z,89.27
2022-12-26T11:57:54.005Z,88.51
2022-12-26T11:58:50.403Z,88.98
2022-12-26T11:59:50.392Z,87.14
2022-12-26T12:00:50.399Z,88.37
2022-12-26T12:01:50.506Z,87.51
2022-12-26T12:02:50.494Z,86.38
2022-12-26T12:03:50.604Z,86.59
2022-12-26T12:04:50.332Z,88.23
2022-12-26T12:05:50.342Z,88.37
2022-12-26T12:06:50.318Z,88.57
2022-12-26T12:07:50.341Z,87.65
2022-12-26T12:08:50.296Z,87.14
2022-12-26T12:09:50.300Z,87.35
2022-12-26T12:10:50.281Z,87.79
2022-12-26T12:11:50.277Z,87.49
2022-12-26T12:12:50.275Z,87.43
2022-12-26T12:13:50.266Z,88.35
2022-12-26T12:14:54.503Z,89.06
2022-12-26T12:15:50.225Z,89.68
2022-12-26T12:16:50.373Z,90.54
2022-12-26T12:17:50.213Z,89.51
2022-12-26T12:18:50.202Z,89.51
2022-12-26T12:19:50.191Z,90.54
2022-12-26T12:20:51.966Z,91.16
2022-12-26T12:21:50.160Z,91.36
2022-12-26T12:22:50.152Z,90.23
2022-12-26T12:23:50.148Z,90.89
2022-12-26T12:24:50.128Z,90.89
2022-12-26T12:25:50.127Z,91.55
2022-12-26T12:26:57.608Z,92.16
2022-12-26T12:27:50.114Z,91.96
2022-12-26T12:28:50.084Z,92.68
2022-12-26T12:29:50.088Z,92.27
2022-12-26T12:30:50.065Z,92.93
2022-12-26T12:31:50.080Z,93.54
2022-12-26T12:32:56.772Z,93.64
2022-12-26T12:33:50.045Z,93.44
2022-12-26T12:34:50.042Z,93.13
2022-12-26T12:35:50.014Z,93.64
2022-12-26T12:36:50.007Z,93.64
2022-12-26T12:37:50.012Z,93.64
2022-12-26T12:38:54.692Z,94.36
2022-12-26T12:39:49.973Z,94.26
2022-12-26T12:40:49.960Z,93.95
2022-12-26T12:41:49.948Z,94.26
2022-12-26T12:42:49.933Z,94.46
2022-12-26T12:43:49.941Z,94.36
2022-12-26T12:44:55.401Z,94.46
2022-12-26T12:45:49.971Z,94.36
2022-12-26T12:46:49.894Z,94.36
2022-12-26T12:47:49.892Z,94.98
2022-12-26T12:48:50.303Z,95.07
2022-12-26T12:49:49.875Z,94.15
2022-12-26T12:50:56.185Z,94.36
2022-12-26T12:51:49.864Z,94.77
2022-12-26T12:52:49.832Z,94.98